Time;durP1;ratioP1;P1;durP2;ratioP2;P2;SDS_P1;SDS_P2;PMS_P1;PMS_P2;Temp;Humidity;BMP_temperature;BMP_pressure;BME280_temperature;BME280_humidity;BME280_pressure;Samples;Min_cycle;Max_cycle;Signal;HPM_P1;HPM_P2
2024/01/19 00:01:13;;;;;;;1.77;0.63;;;;;;;-146.27;82.01;43683.97;5064692;28;20020;-71
2024/01/19 00:03:39;;;;;;;1.85;0.93;;;;;;;-146.27;82.38;43682.00;5071577;28;20035;-70
2024/01/19 00:06:04;;;;;;;3.72;0.93;;;;;;;-146.27;82.13;43662.09;5062619;28;20029;-71
2024/01/19 00:08:30;;;;;;;6.03;0.75;;;;;;;-146.27;81.73;43717.78;5057505;28;20032;-70
2024/01/19 00:10:55;;;;;;;10.48;1.33;;;;;;;-146.27;81.77;43721.78;5057566;28;20028;-70
2024/01/19 00:13:20;;;;;;;5.75;0.98;;;;;;;-146.27;81.95;43747.63;5066686;28;20103;-70
2024/01/19 00:15:46;;;;;;;1.73;0.88;;;;;;;-146.27;81.87;43761.56;5069327;28;20400;-69
2024/01/19 00:18:11;;;;;;;6.40;0.75;;;;;;;-146.27;82.07;43765.53;5067299;28;20143;-71
2024/01/19 00:20:37;;;;;;;2.78;0.90;;;;;;;-146.27;82.02;43761.56;5065446;28;20040;-71
2024/01/19 00:23:02;;;;;;;4.65;0.85;;;;;;;-146.27;82.19;43763.56;5070477;28;20484;-70
2024/01/19 00:25:28;;;;;;;3.60;1.00;;;;;;;-146.27;82.17;43751.63;5063954;28;20056;-71
2024/01/19 00:27:53;;;;;;;3.78;0.88;;;;;;;-146.27;82.85;43741.66;5071615;28;20032;-72
2024/01/19 00:30:18;;;;;;;3.40;1.40;;;;;;;-146.27;82.20;43729.72;5066916;28;20484;-70
2024/01/19 00:32:44;;;;;;;4.05;1.10;;;;;;;-146.27;80.57;43799.34;5057294;28;20381;-70
2024/01/19 00:35:09;;;;;;;4.93;1.20;;;;;;;-146.27;79.54;43843.13;5058594;28;20024;-71
2024/01/19 00:37:34;;;;;;;2.60;0.82;;;;;;;-146.27;78.47;43890.88;5051349;28;20106;-71
2024/01/19 00:40:00;;;;;;;11.00;1.27;;;;;;;-146.27;77.26;43948.56;5054301;28;20542;-71
2024/01/19 00:42:25;;;;;;;6.45;1.58;;;;;;;-146.27;76.71;44012.22;5070529;28;20035;-70
2024/01/19 00:44:51;;;;;;;5.28;1.23;;;;;;;-146.27;75.83;44087.84;5062031;28;20111;-70
2024/01/19 00:47:16;;;;;;;11.18;1.50;;;;;;;-146.27;75.40;44115.69;5061439;28;20159;-71
2024/01/19 00:49:42;;;;;;;6.65;1.52;;;;;;;-146.27;74.85;44175.38;5063785;28;20034;-70
2024/01/19 00:52:08;;;;;;;6.20;1.40;;;;;;;-146.27;74.64;44191.28;5070970;28;20032;-71
2024/01/19 00:54:33;;;;;;;5.32;0.95;;;;;;;-146.27;74.20;44245.00;5070559;28;20365;-72
2024/01/19 00:56:58;;;;;;;5.03;1.10;;;;;;;-146.27;73.42;44249.00;5070520;28;20115;-70
2024/01/19 00:59:24;;;;;;;10.45;1.50;;;;;;;-146.27;73.12;44284.81;5070944;28;20055;-71
2024/01/19 01:01:49;;;;;;;3.33;1.00;;;;;;;-146.27;73.18;44356.44;5070952;28;20028;-71
2024/01/19 01:04:14;;;;;;;2.83;1.30;;;;;;;-146.27;73.01;44362.41;5056196;28;20020;-71
2024/01/19 01:06:40;;;;;;;5.60;1.02;;;;;;;-146.27;72.45;44388.28;5057515;28;20107;-71
2024/01/19 01:09:05;;;;;;;6.53;1.30;;;;;;;-146.27;72.84;44382.31;5063356;28;20602;-71
2024/01/19 01:11:31;;;;;;;2.53;0.70;;;;;;;-146.27;72.74;44402.19;5060412;28;20029;-70
2024/01/19 01:13:57;;;;;;;4.43;1.10;;;;;;;-146.27;72.22;44453.94;5062876;28;20059;-70
2024/01/19 01:16:23;;;;;;;8.65;1.33;;;;;;;-146.27;71.67;44465.88;5069433;28;20464;-70
2024/01/19 01:18:48;;;;;;;4.97;1.50;;;;;;;-146.27;71.23;44481.78;5063992;28;20116;-71
2024/01/19 01:21:13;;;;;;;6.32;1.20;;;;;;;-146.27;71.79;44489.75;5059844;28;20056;-70
2024/01/19 01:23:39;;;;;;;8.13;1.38;;;;;;;-146.27;71.41;44489.75;5067891;28;20071;-70
2024/01/19 01:26:04;;;;;;;2.80;1.27;;;;;;;-146.27;71.77;44473.84;5066061;28;20050;-70
2024/01/19 01:28:29;;;;;;;5.40;1.42;;;;;;;-146.27;71.83;44525.56;5053825;28;20082;-70
2024/01/19 01:30:55;;;;;;;2.38;1.30;;;;;;;-146.27;72.01;44485.78;5068714;28;20032;-70
2024/01/19 01:33:20;;;;;;;9.88;2.15;;;;;;;-146.27;72.70;44489.75;5062011;28;20146;-71
2024/01/19 01:35:45;;;;;;;9.07;1.88;;;;;;;-146.27;72.78;44501.69;5063616;28;20095;-71
2024/01/19 01:38:11;;;;;;;10.02;1.98;;;;;;;-146.27;73.06;44477.81;5066040;28;20032;-71
2024/01/19 01:40:36;;;;;;;9.18;2.05;;;;;;;-146.27;72.99;44471.84;5058724;28;20028;-71
2024/01/19 01:43:04;;;;;;;7.95;2.50;;;;;;;-146.27;72.88;44447.97;5069050;28;20540;-71
2024/01/19 01:45:30;;;;;;;8.30;2.03;;;;;;;-146.27;73.21;44438.00;5070305;28;20670;-70
2024/01/19 01:47:56;;;;;;;9.07;1.83;;;;;;;-146.27;72.88;44442.00;5068143;28;20052;-70
2024/01/19 01:50:22;;;;;;;13.07;2.30;;;;;;;-146.27;73.17;44438.00;5067863;28;20091;-70
2024/01/19 01:52:47;;;;;;;7.25;2.38;;;;;;;-146.27;73.42;44453.94;5065007;28;20037;-70
2024/01/19 01:55:15;;;;;;;10.65;1.98;;;;;;;-146.27;73.29;44442.00;5056818;28;20024;-71
2024/01/19 01:57:43;;;;;;;8.07;1.70;;;;;;;-146.27;72.92;44453.94;5070286;28;20020;-71
2024/01/19 02:00:12;;;;;;;8.05;1.90;;;;;;;-146.27;72.73;44445.97;5069704;28;20042;-71
2024/01/19 02:02:37;;;;;;;6.68;2.13;;;;;;;-146.27;72.69;44453.94;5070195;28;20115;-70
2024/01/19 02:05:05;;;;;;;10.32;2.88;;;;;;;-146.27;73.09;44473.84;5069572;28;20131;-71
2024/01/19 02:07:30;;;;;;;6.85;2.25;;;;;;;-146.27;73.29;44459.91;5069621;28;20033;-71
2024/01/19 02:09:56;;;;;;;5.43;2.13;;;;;;;-146.27;72.76;44485.78;5058669;28;20025;-72
2024/01/19 02:12:22;;;;;;;8.07;3.25;;;;;;;-146.27;72.72;44461.91;5065726;28;20024;-70
2024/01/19 02:14:47;;;;;;;4.95;2.28;;;;;;;-146.27;73.81;44459.91;5060570;28;20067;-70
2024/01/19 02:17:12;;;;;;;9.32;2.83;;;;;;;-146.27;73.68;44434.03;5070127;28;20028;-70
2024/01/19 02:19:39;;;;;;;17.88;2.92;;;;;;;-146.27;73.64;44461.91;5069880;28;20024;-70
2024/01/19 02:22:04;;;;;;;9.77;2.33;;;;;;;-146.27;73.77;44469.84;5069285;28;20107;-71
2024/01/19 02:24:31;;;;;;;6.00;1.95;;;;;;;-146.27;73.31;44451.94;5069638;28;20115;-70
2024/01/19 02:26:57;;;;;;;12.10;2.25;;;;;;;-146.27;73.29;44477.81;5067481;28;20122;-69
2024/01/19 02:29:23;;;;;;;11.68;2.30;;;;;;;-146.27;73.40;44455.94;5069666;28;20503;-71
2024/01/19 02:31:48;;;;;;;9.38;2.22;;;;;;;-146.27;73.42;44489.75;5069624;28;20043;-71
2024/01/19 02:34:13;;;;;;;10.38;2.10;;;;;;;-146.27;73.43;44493.72;5071507;28;20035;-71
2024/01/19 02:36:39;;;;;;;7.80;2.80;;;;;;;-146.27;73.08;44457.91;5072507;28;20021;-69
2024/01/19 02:39:07;;;;;;;9.90;1.92;;;;;;;-146.27;73.32;44461.91;5073675;28;20601;-71
2024/01/19 02:41:32;;;;;;;8.48;2.38;;;;;;;-146.27;73.25;44453.94;5071601;28;20031;-70
2024/01/19 02:43:57;;;;;;;9.63;2.22;;;;;;;-146.27;73.19;44457.91;5072379;28;20523;-69
2024/01/19 02:46:23;;;;;;;6.63;2.35;;;;;;;-146.27;73.76;44436.03;5063941;28;20106;-70
2024/01/19 02:48:48;;;;;;;5.40;2.75;;;;;;;-146.27;73.90;44430.06;5073595;28;20711;-69
2024/01/19 02:51:14;;;;;;;7.75;2.40;;;;;;;-146.27;74.09;44406.19;5071808;28;20392;-69
2024/01/19 02:53:39;;;;;;;15.45;2.42;;;;;;;-146.27;74.66;44418.13;5065110;28;20500;-69
2024/01/19 02:56:05;;;;;;;4.93;2.22;;;;;;;-146.27;74.25;44396.22;5071748;28;20025;-70
2024/01/19 02:58:31;;;;;;;6.55;2.47;;;;;;;-146.27;75.11;44380.31;5064955;28;20113;-71
2024/01/19 03:00:56;;;;;;;9.27;2.70;;;;;;;-146.27;74.43;44374.34;5063736;28;20098;-71
2024/01/19 03:03:21;;;;;;;9.68;2.45;;;;;;;-146.27;74.12;44350.47;5073342;28;20032;-71
2024/01/19 03:05:47;;;;;;;8.85;2.33;;;;;;;-146.27;73.95;44366.38;5068862;28;20759;-71
2024/01/19 03:08:12;;;;;;;4.93;2.00;;;;;;;-146.27;73.93;44366.38;5069459;28;20093;-71
2024/01/19 03:10:37;;;;;;;9.90;2.33;;;;;;;-146.27;73.65;44358.44;5068442;28;20040;-71
2024/01/19 03:13:03;;;;;;;9.50;1.92;;;;;;;-146.27;73.86;44356.44;5061912;28;20048;-71
2024/01/19 03:15:28;;;;;;;8.38;3.33;;;;;;;-146.27;74.37;44360.41;5058077;28;20021;-71
2024/01/19 03:17:54;;;;;;;6.88;2.65;;;;;;;-146.27;74.94;44362.41;5063857;28;20028;-72
2024/01/19 03:20:19;;;;;;;11.02;2.28;;;;;;;-146.27;74.56;44372.34;5066219;28;20021;-72
2024/01/19 03:22:45;;;;;;;19.35;2.88;;;;;;;-146.27;75.00;44338.53;5057370;28;20086;-72
2024/01/19 03:25:10;;;;;;;10.75;2.53;;;;;;;-146.27;74.55;44342.50;5067194;28;20048;-72
2024/01/19 03:27:35;;;;;;;5.68;2.55;;;;;;;-146.27;74.03;44340.53;5060091;28;20060;-71
2024/01/19 03:30:01;;;;;;;6.03;2.67;;;;;;;-146.27;74.52;44320.63;5058753;28;20477;-71
2024/01/19 03:32:26;;;;;;;6.03;2.72;;;;;;;-146.27;74.79;44382.31;5066887;28;20594;-72
2024/01/19 03:34:53;;;;;;;8.23;2.95;;;;;;;-146.27;74.16;44352.47;5072796;28;20477;-71
2024/01/19 03:37:18;;;;;;;4.90;2.35;;;;;;;-146.27;74.05;44370.38;5062872;28;20024;-71
2024/01/19 03:39:43;;;;;;;5.57;1.98;;;;;;;-146.27;73.58;44374.34;5072141;28;20507;-71
2024/01/19 03:42:09;;;;;;;7.70;2.05;;;;;;;-146.27;73.93;44414.13;5070294;28;20567;-71
2024/01/19 03:44:34;;;;;;;12.82;2.45;;;;;;;-146.27;74.14;44402.19;5063974;28;20064;-72
2024/01/19 03:46:59;;;;;;;9.40;2.08;;;;;;;-146.27;74.08;44412.16;5065403;28;20021;-71
2024/01/19 03:49:25;;;;;;;9.55;2.33;;;;;;;-146.27;73.50;44414.13;5062494;28;20380;-71
2024/01/19 03:51:57;;;;;;;10.57;2.33;;;;;;;-146.27;73.11;44432.03;5060167;28;22362;-72
2024/01/19 03:54:22;;;;;;;8.00;2.40;;;;;;;-146.27;73.81;44451.94;5067783;28;20033;-71
2024/01/19 03:56:47;;;;;;;11.20;1.88;;;;;;;-146.27;73.52;44434.03;5066827;28;20024;-72
2024/01/19 03:59:13;;;;;;;4.55;1.80;;;;;;;-146.27;73.29;44434.03;5071136;28;20035;-71
2024/01/19 04:01:38;;;;;;;6.00;2.22;;;;;;;-146.27;72.98;44457.91;5057145;28;20031;-72
2024/01/19 04:04:03;;;;;;;5.00;2.22;;;;;;;-146.27;72.82;44445.97;5059144;28;20059;-71
2024/01/19 04:06:29;;;;;;;9.50;2.10;;;;;;;-146.27;72.12;44445.97;5063745;28;20036;-71
2024/01/19 04:08:54;;;;;;;3.85;1.67;;;;;;;-146.27;72.81;44469.84;5071854;28;20036;-72
2024/01/19 04:11:19;;;;;;;17.95;2.17;;;;;;;-146.27;72.23;44440.00;5066581;28;20035;-71
2024/01/19 04:13:45;;;;;;;10.23;1.50;;;;;;;-146.27;75.21;44346.50;5061530;28;20087;-71
2024/01/19 04:16:10;;;;;;;3.13;1.20;;;;;;;-146.27;76.00;44286.78;5066403;28;20024;-72
2024/01/19 04:18:36;;;;;;;3.70;0.90;;;;;;;-146.27;77.24;44219.16;5071881;28;20028;-72
2024/01/19 04:21:01;;;;;;;15.13;1.10;;;;;;;-146.27;79.37;44129.63;5064791;28;20043;-72
2024/01/19 04:23:26;;;;;;;2.53;0.65;;;;;;;-146.27;80.53;44048.03;5053695;28;20028;-72
2024/01/19 04:25:52;;;;;;;3.13;0.43;;;;;;;-146.27;81.22;43982.38;5069628;28;20806;-71
2024/01/19 04:28:17;;;;;;;4.45;1.30;;;;;;;-146.27;81.92;43914.75;5071853;28;20598;-72
2024/01/19 04:30:43;;;;;;;7.43;0.65;;;;;;;-146.27;81.69;43807.31;5070270;28;20481;-72
2024/01/19 04:33:08;;;;;;;5.32;1.20;;;;;;;-146.27;82.71;43781.47;5060480;28;20032;-72
2024/01/19 04:35:33;;;;;;;1.80;0.50;;;;;;;-146.27;83.23;43689.94;5070063;28;20489;-73
2024/01/19 04:37:59;;;;;;;4.78;0.70;;;;;;;-146.27;82.92;43650.16;5069365;28;20085;-72
2024/01/19 04:40:24;;;;;;;5.68;0.60;;;;;;;-146.27;82.57;43682.00;5067707;28;20017;-72
2024/01/19 04:42:49;;;;;;;6.35;0.95;;;;;;;-146.27;82.75;43697.91;5064966;28;20048;-72
2024/01/19 04:45:15;;;;;;;4.80;0.98;;;;;;;-146.27;82.93;43654.13;5070143;28;20033;-72
2024/01/19 04:47:40;;;;;;;5.53;0.70;;;;;;;-146.27;82.87;43660.09;5058678;28;20115;-72
2024/01/19 04:50:06;;;;;;;5.18;1.20;;;;;;;-146.27;82.82;43634.25;5056429;28;20048;-71
2024/01/19 04:52:31;;;;;;;7.07;1.23;;;;;;;-146.27;82.55;43626.28;5069627;28;20020;-71
2024/01/19 04:54:57;;;;;;;4.68;1.00;;;;;;;-146.27;82.66;43622.31;5056150;28;20116;-72
2024/01/19 04:57:22;;;;;;;4.53;1.35;;;;;;;-146.27;82.43;43632.25;5065466;28;20682;-72
2024/01/19 04:59:47;;;;;;;5.82;0.82;;;;;;;-146.27;82.27;43620.31;5061815;28;20103;-72
2024/01/19 05:02:13;;;;;;;4.97;0.88;;;;;;;-146.27;82.36;43644.19;5065997;28;20055;-72
2024/01/19 05:04:40;;;;;;;4.97;0.80;;;;;;;-146.27;82.28;43638.22;5067731;28;20021;-72
2024/01/19 05:07:06;;;;;;;4.35;0.65;;;;;;;-146.27;82.18;43666.06;5068657;28;20392;-72
2024/01/19 05:09:31;;;;;;;2.28;0.85;;;;;;;-146.27;82.25;43658.13;5069687;28;20021;-73
2024/01/19 05:11:56;;;;;;;5.85;1.17;;;;;;;-146.27;82.45;43658.13;5065936;28;20109;-71
2024/01/19 05:14:22;;;;;;;5.40;0.80;;;;;;;-146.27;82.08;43680.00;5070874;28;20441;-71
2024/01/19 05:16:47;;;;;;;2.17;0.82;;;;;;;-146.27;82.27;43705.84;5070490;28;20035;-72
2024/01/19 05:19:12;;;;;;;4.22;0.70;;;;;;;-146.27;82.29;43723.75;5069904;28;20086;-72
2024/01/19 05:21:38;;;;;;;6.45;0.90;;;;;;;-146.27;82.38;43779.47;5069838;28;20033;-72
2024/01/19 05:24:03;;;;;;;15.40;1.48;;;;;;;-146.27;82.77;43721.78;5062740;28;20045;-71
2024/01/19 05:26:29;;;;;;;4.00;1.30;;;;;;;-146.27;83.02;43757.59;5066080;28;20039;-71
2024/01/19 05:28:55;;;;;;;4.05;0.95;;;;;;;-146.27;83.36;43697.91;5060600;28;20116;-71
2024/01/19 05:31:20;;;;;;;3.88;1.55;;;;;;;-146.27;83.09;43717.78;5062252;28;20528;-71
2024/01/19 05:33:45;;;;;;;2.47;1.00;;;;;;;-146.27;83.28;43685.97;5070518;28;20051;-72
2024/01/19 05:36:11;;;;;;;4.50;0.95;;;;;;;-146.27;83.84;43691.94;5067780;28;20030;-72
2024/01/19 05:38:36;;;;;;;7.38;1.05;;;;;;;-146.27;83.95;43636.22;5070056;28;20032;-72
2024/01/19 05:41:02;;;;;;;5.57;2.10;;;;;;;-146.27;83.95;43614.34;5068019;28;20035;-72
2024/01/19 05:43:28;;;;;;;6.22;1.17;;;;;;;-146.27;84.08;43610.38;5069940;28;20217;-71
2024/01/19 05:45:53;;;;;;;8.05;1.33;;;;;;;-146.27;84.08;43638.22;5067988;28;20031;-72
2024/01/19 05:48:18;;;;;;;9.07;1.50;;;;;;;-146.27;84.02;43602.41;5069717;28;20484;-72
2024/01/19 05:50:44;;;;;;;5.45;1.65;;;;;;;-146.27;83.91;43622.31;5066719;28;20044;-72
2024/01/19 05:53:09;;;;;;;6.05;1.90;;;;;;;-146.27;84.44;43598.44;5060973;28;20029;-72
2024/01/19 05:55:34;;;;;;;6.55;2.15;;;;;;;-146.27;84.72;43540.75;5067590;28;20036;-72
2024/01/19 05:58:00;;;;;;;12.65;1.80;;;;;;;-146.27;84.80;43498.97;5069598;28;20020;-72
2024/01/19 06:00:25;;;;;;;3.30;1.60;;;;;;;-146.27;85.42;43435.31;5066117;28;20028;-72
2024/01/19 06:02:50;;;;;;;4.97;1.70;;;;;;;-146.27;85.30;43411.44;5064815;28;20093;-72
2024/01/19 06:05:16;;;;;;;10.32;2.35;;;;;;;-146.27;85.42;43357.72;5068362;28;20032;-72
2024/01/19 06:07:41;;;;;;;8.75;1.45;;;;;;;-146.27;85.66;43327.91;5061219;28;20508;-72
2024/01/19 06:10:07;;;;;;;7.50;1.80;;;;;;;-146.27;86.03;43310.00;5057644;28;20062;-72
2024/01/19 06:12:32;;;;;;;7.53;1.42;;;;;;;-146.27;85.36;43319.94;5070052;28;20063;-71
2024/01/19 06:14:57;;;;;;;5.75;1.90;;;;;;;-146.27;85.67;43319.94;5066597;28;20541;-72
2024/01/19 06:17:23;;;;;;;6.05;2.08;;;;;;;-146.27;85.14;43325.91;5061197;28;20917;-72
2024/01/19 06:19:48;;;;;;;8.43;2.00;;;;;;;-146.27;85.30;43357.72;5064446;28;20059;-72
2024/01/19 06:22:13;;;;;;;7.90;1.77;;;;;;;-146.27;85.21;43353.75;5069929;28;20396;-72
2024/01/19 06:24:39;;;;;;;4.13;1.50;;;;;;;-146.27;85.46;43363.69;5059462;28;20689;-72
2024/01/19 06:27:04;;;;;;;8.55;1.73;;;;;;;-146.27;85.71;43367.69;5062434;28;20031;-71
2024/01/19 06:29:29;;;;;;;7.15;2.38;;;;;;;-146.27;85.83;43355.75;5070272;28;20456;-71
2024/01/19 06:31:55;;;;;;;6.28;2.00;;;;;;;-146.27;86.05;43351.75;5066989;28;20048;-72
2024/01/19 06:34:20;;;;;;;12.00;1.88;;;;;;;-146.27;85.63;43379.63;5069975;28;20054;-71
2024/01/19 06:36:46;;;;;;;12.60;2.13;;;;;;;-146.27;85.92;43357.72;5085754;28;20028;-72
2024/01/19 06:39:15;;;;;;;3.97;1.90;;;;;;;-146.27;85.88;43375.63;5069861;28;20032;-71
2024/01/19 06:41:44;;;;;;;6.03;1.88;;;;;;;-146.27;86.19;43339.84;5067653;28;20028;-72
2024/01/19 06:44:11;;;;;;;5.93;2.38;;;;;;;-146.27;86.06;43351.75;5069079;28;20025;-71
2024/01/19 06:46:36;;;;;;;6.32;2.28;;;;;;;-146.27;86.64;43349.78;5063568;28;20032;-72
2024/01/19 06:49:01;;;;;;;4.65;2.15;;;;;;;-146.27;86.56;43304.03;5062659;28;20021;-71
2024/01/19 06:51:28;;;;;;;7.50;2.70;;;;;;;-146.27;86.41;43313.97;5061201;28;20027;-72
2024/01/19 06:53:55;;;;;;;4.28;2.63;;;;;;;-146.27;86.63;43308.00;5060430;28;20025;-73
2024/01/19 06:56:20;;;;;;;14.00;3.13;;;;;;;-146.27;86.56;43323.91;5066278;28;20031;-71
2024/01/19 06:58:45;;;;;;;5.25;2.50;;;;;;;-146.27;86.80;43333.88;5068965;28;20514;-71
2024/01/19 07:01:11;;;;;;;10.75;3.15;;;;;;;-146.27;86.64;43278.16;5069496;28;20028;-71
2024/01/19 07:03:36;;;;;;;14.57;4.38;;;;;;;-146.27;86.60;43298.06;5067174;28;20024;-71
2024/01/19 07:06:02;;;;;;;8.18;4.18;;;;;;;-146.27;86.92;43300.06;5072291;28;20027;-72
2024/01/19 07:08:27;;;;;;;6.80;3.10;;;;;;;-146.27;86.88;43276.19;5051159;28;20493;-72
2024/01/19 07:10:53;;;;;;;13.40;4.43;;;;;;;-146.27;86.90;43284.13;5059910;28;20058;-72
2024/01/19 07:13:18;;;;;;;10.40;3.97;;;;;;;-146.27;87.10;43286.13;5057413;28;20029;-72
2024/01/19 07:15:43;;;;;;;13.02;3.50;;;;;;;-146.27;87.05;43292.09;5054371;28;20027;-72
2024/01/19 07:18:09;;;;;;;11.45;3.40;;;;;;;-146.27;87.00;43252.31;5060907;28;20020;-72
2024/01/19 07:20:34;;;;;;;7.95;3.35;;;;;;;-146.27;87.54;43264.25;5063389;28;20362;-72
2024/01/19 07:23:01;;;;;;;7.20;3.95;;;;;;;-146.27;87.25;43260.25;5060132;28;20476;-72
2024/01/19 07:25:26;;;;;;;8.43;3.88;;;;;;;-146.27;87.13;43304.03;5063872;28;20064;-71
2024/01/19 07:27:53;;;;;;;5.35;3.47;;;;;;;-146.27;86.89;43290.09;5063755;28;20083;-71
2024/01/19 07:30:19;;;;;;;6.55;3.67;;;;;;;-146.27;87.00;43308.00;5066074;28;20029;-72
2024/01/19 07:32:44;;;;;;;10.55;3.60;;;;;;;-146.27;86.87;43317.94;5067065;28;20034;-72
2024/01/19 07:35:10;;;;;;;9.70;3.83;;;;;;;-146.27;86.90;43292.09;5081573;28;20058;-71
2024/01/19 07:37:35;;;;;;;12.80;3.92;;;;;;;-146.27;86.91;43331.88;5069269;28;21573;-71
2024/01/19 07:40:00;;;;;;;13.10;3.80;;;;;;;-146.27;87.10;43315.97;5071534;28;20020;-71
2024/01/19 07:42:26;;;;;;;9.18;4.40;;;;;;;-146.27;86.97;43308.00;5068175;28;20491;-72
2024/01/19 07:44:51;;;;;;;11.35;4.65;;;;;;;-146.27;87.38;43323.91;5071332;28;20032;-72
2024/01/19 07:47:18;;;;;;;9.02;5.22;;;;;;;-146.27;88.06;43343.81;5077588;28;20042;-71
2024/01/19 07:49:43;;;;;;;11.82;4.63;;;;;;;-146.27;87.56;43381.59;5062569;28;20028;-71
2024/01/19 07:52:09;;;;;;;9.75;4.53;;;;;;;-146.27;87.51;43413.44;5065323;28;20028;-72
2024/01/19 07:54:34;;;;;;;9.20;5.55;;;;;;;-146.27;88.06;43415.41;5055768;28;20074;-72
2024/01/19 07:56:59;;;;;;;10.73;4.72;;;;;;;-146.27;87.44;43487.03;5068224;28;20029;-71
2024/01/19 07:59:25;;;;;;;19.08;5.55;;;;;;;-146.27;87.95;43524.84;5079633;28;20025;-71
2024/01/19 08:01:50;;;;;;;14.95;4.32;;;;;;;-146.27;88.05;43538.75;5066739;28;20101;-72
2024/01/19 08:04:16;;;;;;;10.23;4.40;;;;;;;-146.27;87.75;43592.47;5057733;28;20059;-71
2024/01/19 08:06:42;;;;;;;9.57;4.40;;;;;;;-146.27;88.20;43616.34;5068061;28;20116;-71
2024/01/19 08:09:08;;;;;;;12.23;4.05;;;;;;;-146.27;88.63;43685.97;5070030;28;20108;-71
2024/01/19 08:11:33;;;;;;;13.82;3.45;;;;;;;-146.27;89.73;43628.28;5064977;28;20082;-71
2024/01/19 08:13:58;;;;;;;7.55;2.22;;;;;;;-146.27;90.72;43546.72;5070860;28;20109;-71
2024/01/19 08:16:24;;;;;;;13.35;2.92;;;;;;;-146.27;90.18;43447.25;5070322;28;20035;-71
2024/01/19 08:18:49;;;;;;;11.30;2.67;;;;;;;-146.27;90.21;43417.41;5080439;28;20107;-71
2024/01/19 08:21:14;;;;;;;8.85;2.30;;;;;;;-146.27;89.34;43371.66;5067654;28;20389;-71
2024/01/19 08:23:40;;;;;;;12.90;2.53;;;;;;;-146.27;88.21;43351.75;5069966;28;20024;-71
2024/01/19 08:26:06;;;;;;;8.27;2.35;;;;;;;-146.27;87.86;43357.72;5069976;28;20158;-72
2024/01/19 08:28:32;;;;;;;14.98;2.50;;;;;;;-146.27;87.29;43427.34;5067571;28;20025;-72
2024/01/19 08:30:57;;;;;;;11.20;2.63;;;;;;;-146.27;86.95;43491.00;5062616;28;20283;-72
2024/01/19 08:33:25;;;;;;;19.30;2.67;;;;;;;-146.27;86.80;43522.84;5057954;28;20488;-72
2024/01/19 08:35:51;;;;;;;8.50;2.47;;;;;;;-146.27;86.80;43526.81;5058523;28;20473;-72
2024/01/19 08:38:16;;;;;;;12.57;2.72;;;;;;;-146.27;87.01;43566.59;5059040;28;20016;-72
2024/01/19 08:40:41;;;;;;;2.67;2.00;;;;;;;-146.27;87.36;43540.75;5067740;28;20052;-73
2024/01/19 08:43:08;;;;;;;9.98;3.08;;;;;;;-146.27;87.78;43560.63;5070025;28;20024;-73
2024/01/19 08:45:33;;;;;;;5.68;2.33;;;;;;;-146.27;87.99;43554.66;5069035;28;20020;-73
2024/01/19 08:47:58;;;;;;;6.78;2.05;;;;;;;-146.27;87.80;43532.78;5061706;28;20051;-73
2024/01/19 08:50:24;;;;;;;15.80;3.08;;;;;;;-146.27;87.53;43467.13;5059596;28;20079;-72
2024/01/19 08:52:50;;;;;;;7.95;2.60;;;;;;;-146.27;87.62;43441.28;5059165;28;20032;-72
2024/01/19 08:55:15;;;;;;;11.77;3.30;;;;;;;-146.27;88.02;43443.28;5056372;28;20024;-71
2024/01/19 08:57:41;;;;;;;12.70;2.90;;;;;;;-146.27;88.07;43429.34;5058922;28;20462;-72
2024/01/19 09:00:07;;;;;;;12.10;3.42;;;;;;;-146.27;88.14;43427.34;5061163;28;20163;-71
2024/01/19 09:02:33;;;;;;;11.32;2.90;;;;;;;-146.27;87.80;43447.25;5053665;28;20114;-72
2024/01/19 09:04:59;;;;;;;7.22;3.35;;;;;;;-146.27;87.64;43447.25;5065658;28;20021;-72
2024/01/19 09:07:25;;;;;;;11.25;3.13;;;;;;;-146.27;87.77;43518.88;5062009;28;20108;-72
2024/01/19 09:09:50;;;;;;;11.18;3.75;;;;;;;-146.27;88.06;43504.94;5062248;28;20572;-71
2024/01/19 09:12:15;;;;;;;13.18;3.90;;;;;;;-146.27;88.16;43510.91;5064568;28;20024;-73
2024/01/19 09:14:40;;;;;;;18.55;3.75;;;;;;;-146.27;88.25;43506.94;5064595;28;20038;-71
2024/01/19 09:17:06;;;;;;;14.13;4.47;;;;;;;-146.27;88.22;43483.06;5062713;28;20021;-72
2024/01/19 09:19:31;;;;;;;9.20;4.40;;;;;;;-146.27;88.35;43475.09;5058132;28;20064;-72
2024/01/19 09:21:59;;;;;;;13.73;4.28;;;;;;;-146.27;88.16;43510.91;5052339;28;20055;-72
2024/01/19 09:24:24;;;;;;;8.48;4.05;;;;;;;-146.27;88.40;43471.13;5064505;28;20123;-72
2024/01/19 09:26:51;;;;;;;8.52;4.03;;;;;;;-146.27;88.26;43451.22;5065199;28;20119;-72
2024/01/19 09:29:16;;;;;;;11.95;4.68;;;;;;;-146.27;88.18;43427.34;5066268;28;20074;-71
2024/01/19 09:31:47;;;;;;;17.45;4.95;;;;;;;-146.27;88.37;43439.28;5066592;28;20102;-71
2024/01/19 09:34:14;;;;;;;15.48;4.82;;;;;;;-146.27;88.33;43435.31;5062446;28;20068;-71
2024/01/19 09:36:40;;;;;;;8.63;4.93;;;;;;;-146.27;88.64;43401.50;5056603;28;20032;-72
2024/01/19 09:39:06;;;;;;;12.95;4.65;;;;;;;-146.27;88.26;43411.44;5063041;28;20395;-70
2024/01/19 09:41:39;;;;;;;15.88;5.28;;;;;;;-146.27;88.06;43395.53;5055218;28;20183;-72
2024/01/19 09:44:09;;;;;;;9.20;5.05;;;;;;;-146.27;87.87;43407.47;5059594;28;20024;-73
2024/01/19 09:46:51;;;;;;;21.65;5.68;;;;;;;-146.27;87.75;43435.31;5059433;28;20071;-72
2024/01/19 09:49:40;;;;;;;14.68;5.05;;;;;;;-146.27;87.51;43391.56;5056525;28;20393;-72
2024/01/19 09:52:26;;;;;;;18.23;5.53;;;;;;;-146.27;86.94;43365.69;5066770;28;20032;-71
2024/01/19 09:54:54;;;;;;;14.90;5.18;;;;;;;-146.27;86.07;43435.31;5052902;28;20094;-72
2024/01/19 09:57:19;;;;;;;16.27;5.00;;;;;;;-146.27;85.71;43423.38;5064340;28;20082;-71
2024/01/19 09:59:45;;;;;;;18.80;5.05;;;;;;;-146.27;84.51;43429.34;5067699;28;20032;-70
2024/01/19 10:02:12;;;;;;;14.50;3.97;;;;;;;-146.27;82.19;43598.44;5065017;28;20074;-70
2024/01/19 10:04:37;;;;;;;13.48;5.28;;;;;;;-146.27;82.28;43520.84;5070212;28;20032;-70
2024/01/19 10:07:03;;;;;;;11.32;3.72;;;;;;;-146.27;80.95;43542.72;5063673;28;20047;-69
2024/01/19 10:09:31;;;;;;;13.52;3.75;;;;;;;-146.27;80.44;43560.63;5055333;28;20036;-70
2024/01/19 10:11:57;;;;;;;10.55;3.38;;;;;;;-146.27;78.93;43590.47;5063989;28;20411;-70
2024/01/19 10:14:23;;;;;;;14.75;3.33;;;;;;;-146.27;77.86;43662.09;5058447;28;20059;-72
2024/01/19 10:16:50;;;;;;;14.75;3.03;;;;;;;-146.27;76.52;43723.75;5072778;28;20373;-71
2024/01/19 10:19:16;;;;;;;7.03;3.03;;;;;;;-146.27;74.81;43857.06;5066700;28;20071;-70
2024/01/19 10:21:43;;;;;;;11.82;2.42;;;;;;;-146.27;73.58;43849.09;5069026;28;20028;-69
2024/01/19 10:24:19;;;;;;;7.47;2.08;;;;;;;-146.27;70.55;44079.88;5056382;28;20056;-71
2024/01/19 10:26:52;;;;;;;10.23;1.88;;;;;;;-146.27;69.43;44264.91;5069192;28;20044;-71
2024/01/19 10:29:17;;;;;;;8.20;2.13;;;;;;;-146.27;66.87;44539.50;5067984;28;20035;-70
2024/01/19 10:31:49;;;;;;;9.20;1.67;;;;;;;-146.27;66.48;44680.78;5068379;28;20115;-72
2024/01/19 10:34:19;;;;;;;8.00;1.42;;;;;;;-146.27;64.48;44784.25;5059798;28;20039;-72
2024/01/19 10:36:46;;;;;;;10.38;1.50;;;;;;;-146.27;64.38;44869.81;5072631;28;20016;-71
2024/01/19 10:39:20;;;;;;;5.85;1.73;;;;;;;-146.27;62.12;44983.25;5074181;28;20028;-71
2024/01/19 10:41:47;;;;;;;9.57;2.40;;;;;;;-146.27;61.58;45027.03;5067854;28;20036;-72
2024/01/19 10:44:14;;;;;;;9.52;2.17;;;;;;;-146.27;61.02;45034.97;5064715;28;20445;-71
2024/01/19 10:46:40;;;;;;;10.20;2.33;;;;;;;-146.27;59.10;45178.28;5069639;28;20024;-72
2024/01/19 10:49:08;;;;;;;11.48;2.00;;;;;;;-146.27;58.62;45226.03;5069160;28;20032;-71
2024/01/19 10:51:44;;;;;;;9.10;1.48;;;;;;;-146.27;57.76;45206.13;5068559;28;20020;-72
2024/01/19 10:54:23;;;;;;;5.03;1.90;;;;;;;-146.27;56.77;45385.25;5056667;28;20115;-73
2024/01/19 10:56:50;;;;;;;7.75;1.20;;;;;;;-146.27;54.43;45444.94;5070724;28;20059;-73
2024/01/19 10:59:16;;;;;;;7.38;1.73;;;;;;;-146.27;54.32;45492.72;5065180;28;20678;-72
2024/01/19 11:01:42;;;;;;;8.25;1.40;;;;;;;-146.27;53.40;45608.16;5058949;28;20054;-73
2024/01/19 11:04:09;;;;;;;11.20;2.08;;;;;;;-146.27;52.93;45600.19;5066108;28;20156;-73
2024/01/19 11:06:39;;;;;;;11.50;1.50;;;;;;;-146.27;52.49;45671.84;5061451;28;20028;-73
2024/01/19 11:09:08;;;;;;;6.53;1.52;;;;;;;-146.27;51.66;45642.00;5059963;28;20025;-73